Time;durP1;ratioP1;P1;durP2;ratioP2;P2;SDS_P1;SDS_P2;PMS_P1;PMS_P2;Temp;Humidity;BMP_temperature;BMP_pressure;BME280_temperature;BME280_humidity;BME280_pressure;Samples;Min_cycle;Max_cycle;Signal;HPM_P1;HPM_P2
2022/03/04 00:02:09;;;;;;;0.50;0.50;;;0.60;99.90;;;;;;5228779;28;20070;-74
2022/03/04 00:04:41;;;;;;;0.60;0.60;;;0.60;99.90;;;;;;5239274;28;20054;-74
2022/03/04 00:07:17;;;;;;;1.08;1.08;;;0.60;99.90;;;;;;5230766;28;20240;-74
2022/03/04 00:09:49;;;;;;;0.40;0.40;;;0.60;99.90;;;;;;5230311;28;20446;-75
2022/03/04 00:12:27;;;;;;;1.50;1.42;;;0.60;99.90;;;;;;5262399;28;20032;-73
2022/03/04 00:14:58;;;;;;;1.48;1.38;;;0.50;99.90;;;;;;5194746;28;20055;-74
2022/03/04 00:17:30;;;;;;;0.90;0.90;;;0.60;99.90;;;;;;5241777;28;20504;-74
2022/03/04 00:20:01;;;;;;;0.60;0.60;;;0.50;99.90;;;;;;5216065;28;20045;-73
2022/03/04 00:22:33;;;;;;;0.60;0.60;;;0.60;99.90;;;;;;5245754;28;20040;-73
2022/03/04 00:25:08;;;;;;;0.47;0.47;;;0.50;99.90;;;;;;5246076;28;20058;-73
2022/03/04 00:27:39;;;;;;;;;;;0.60;99.90;;;;;;5243702;28;20222;-73
2022/03/04 00:30:13;;;;;;;0.65;0.65;;;0.60;99.90;;;;;;5238601;28;19920;-73
2022/03/04 00:32:45;;;;;;;1.52;1.52;;;0.60;99.90;;;;;;5237394;28;20047;-73
2022/03/04 00:35:22;;;;;;;1.67;1.23;;;0.60;99.90;;;;;;5262331;28;20040;-73
2022/03/04 00:38:01;;;;;;;0.85;0.85;;;0.60;99.90;;;;;;5245471;28;20582;-74
2022/03/04 00:40:37;;;;;;;2.25;2.15;;;0.60;99.90;;;;;;5244040;28;20385;-74
2022/03/04 00:43:10;;;;;;;0.65;0.65;;;0.70;99.90;;;;;;5224919;28;20059;-73
2022/03/04 00:45:47;;;;;;;0.60;0.60;;;0.80;99.90;;;;;;5233220;28;20038;-73
2022/03/04 00:48:21;;;;;;;0.93;0.93;;;0.70;99.90;;;;;;5258162;28;20039;-73
2022/03/04 00:50:53;;;;;;;1.80;1.73;;;0.70;99.90;;;;;;5260808;28;20455;-73
2022/03/04 00:53:27;;;;;;;1.13;1.13;;;0.70;99.90;;;;;;5255584;28;20069;-73
2022/03/04 00:56:00;;;;;;;0.90;0.90;;;0.70;99.90;;;;;;5223141;28;20032;-74
2022/03/04 00:58:33;;;;;;;0.93;0.93;;;0.70;99.90;;;;;;5244001;28;20268;-74
2022/03/04 01:01:11;;;;;;;2.95;2.45;;;0.60;99.90;;;;;;5238093;28;20474;-74
2022/03/04 01:03:45;;;;;;;0.40;0.40;;;0.70;99.90;;;;;;5237607;28;20040;-74
2022/03/04 01:06:19;;;;;;;0.73;0.73;;;0.70;99.90;;;;;;5232361;28;20056;-74
2022/03/04 01:08:54;;;;;;;0.60;0.60;;;0.80;99.90;;;;;;5201247;28;20067;-73
2022/03/04 01:11:28;;;;;;;2.70;2.60;;;0.70;99.90;;;;;;5233614;28;20047;-74
2022/03/04 01:14:00;;;;;;;0.55;0.55;;;0.80;99.90;;;;;;5251489;28;20031;-74
2022/03/04 01:16:36;;;;;;;1.00;1.00;;;0.70;99.90;;;;;;5245399;28;20229;-74
2022/03/04 01:19:16;;;;;;;1.38;1.27;;;0.70;99.90;;;;;;5241843;28;20040;-74
2022/03/04 01:21:50;;;;;;;1.67;1.58;;;0.60;99.90;;;;;;5241391;28;20296;-74
2022/03/04 01:24:24;;;;;;;0.50;0.50;;;0.70;99.90;;;;;;5232345;28;20036;-73
2022/03/04 01:26:56;;;;;;;0.95;0.95;;;0.60;99.90;;;;;;5226709;28;20512;-74
2022/03/04 01:29:33;;;;;;;0.82;0.82;;;0.70;99.90;;;;;;5269009;28;20031;-74
2022/03/04 01:32:07;;;;;;;1.88;1.67;;;0.70;99.90;;;;;;5221564;28;20063;-73
2022/03/04 01:34:41;;;;;;;1.58;1.52;;;0.60;99.90;;;;;;5261981;28;20233;-75
2022/03/04 01:37:13;;;;;;;;;;;0.70;99.90;;;;;;5246866;28;20038;-73
2022/03/04 01:39:44;;;;;;;1.40;1.30;;;0.70;99.90;;;;;;5258718;28;19912;-74
2022/03/04 01:42:20;;;;;;;2.55;2.45;;;0.70;99.90;;;;;;5248124;28;20040;-73
2022/03/04 01:44:51;;;;;;;0.85;0.85;;;0.70;99.90;;;;;;5244560;28;20040;-73
2022/03/04 01:47:26;;;;;;;0.50;0.50;;;0.70;99.90;;;;;;5248182;28;20078;-73
2022/03/04 01:50:04;;;;;;;0.85;0.85;;;0.70;99.90;;;;;;5219267;28;20371;-74
2022/03/04 01:52:35;;;;;;;0.75;0.75;;;0.70;99.90;;;;;;5244974;28;20032;-74
2022/03/04 01:55:08;;;;;;;0.68;0.68;;;0.60;99.90;;;;;;5244114;28;20225;-74
2022/03/04 01:57:44;;;;;;;1.40;1.40;;;0.60;99.90;;;;;;5244423;28;20024;-74
2022/03/04 02:00:16;;;;;;;1.70;1.60;;;0.70;99.90;;;;;;5242835;28;20038;-73
2022/03/04 02:02:49;;;;;;;0.95;0.95;;;0.70;99.90;;;;;;5254631;28;20058;-73
2022/03/04 02:05:26;;;;;;;0.90;0.90;;;0.60;99.90;;;;;;5218621;28;20055;-75
2022/03/04 02:08:00;;;;;;;1.70;1.60;;;0.60;99.90;;;;;;5239080;28;20040;-74
2022/03/04 02:10:34;;;;;;;1.08;1.08;;;0.60;99.90;;;;;;5241710;28;20032;-73
2022/03/04 02:13:07;;;;;;;1.52;1.52;;;0.60;99.90;;;;;;5230213;28;20032;-73
2022/03/04 02:15:38;;;;;;;1.45;1.38;;;0.60;99.90;;;;;;5240351;28;20027;-74
2022/03/04 02:18:17;;;;;;;0.98;0.98;;;0.50;99.90;;;;;;5259230;28;20603;-74
2022/03/04 02:20:53;;;;;;;1.10;1.10;;;0.40;99.90;;;;;;5243785;28;20024;-74
2022/03/04 02:23:27;;;;;;;0.77;0.77;;;0.30;99.90;;;;;;5258143;28;20024;-74
2022/03/04 02:26:04;;;;;;;1.67;1.58;;;0.30;99.90;;;;;;5233540;28;20042;-73
2022/03/04 02:28:36;;;;;;;1.90;1.80;;;0.20;99.90;;;;;;5240194;28;20047;-73
2022/03/04 02:31:09;;;;;;;0.50;0.50;;;0.10;99.90;;;;;;5232607;28;20062;-75
2022/03/04 02:33:43;;;;;;;1.15;1.15;;;0.10;99.90;;;;;;5245013;28;20048;-73
2022/03/04 02:36:21;;;;;;;0.80;0.80;;;0.10;99.90;;;;;;5249190;28;20036;-73
2022/03/04 02:38:55;;;;;;;2.25;2.15;;;0.10;99.90;;;;;;5228825;28;20035;-74
2022/03/04 02:41:29;;;;;;;0.77;0.77;;;0.00;99.90;;;;;;5254008;28;20036;-74
2022/03/04 02:44:06;;;;;;;2.60;2.45;;;0.10;99.90;;;;;;5250078;28;20037;-74
2022/03/04 02:46:45;;;;;;;0.40;0.40;;;0.10;99.90;;;;;;5261429;28;20028;-73
2022/03/04 02:49:27;;;;;;;0.50;0.50;;;0.10;99.90;;;;;;5253104;28;20341;-73
2022/03/04 02:51:58;;;;;;;0.50;0.50;;;0.10;99.90;;;;;;5230861;28;20038;-73
2022/03/04 02:54:38;;;;;;;0.45;0.45;;;0.10;99.90;;;;;;5204206;28;20039;-74
2022/03/04 02:57:14;;;;;;;2.25;2.05;;;0.10;99.90;;;;;;5238589;28;20050;-73
2022/03/04 02:59:49;;;;;;;1.08;1.02;;;0.10;99.90;;;;;;5243442;28;20547;-76
2022/03/04 03:02:25;;;;;;;0.75;0.75;;;0.00;99.90;;;;;;5256811;28;20048;-73
2022/03/04 03:04:58;;;;;;;0.98;0.98;;;0.00;99.90;;;;;;5233375;28;20056;-75
2022/03/04 03:07:32;;;;;;;1.08;1.08;;;0.00;99.90;;;;;;5243625;28;20028;-75
2022/03/04 03:10:05;;;;;;;0.60;0.60;;;-0.10;99.90;;;;;;5253511;28;20054;-74
2022/03/04 03:12:40;;;;;;;0.60;0.60;;;-0.10;99.90;;;;;;5252261;28;20036;-74
2022/03/04 03:15:12;;;;;;;0.70;0.70;;;-0.30;99.90;;;;;;5243339;28;20482;-74
2022/03/04 03:17:51;;;;;;;0.45;0.45;;;-0.40;99.90;;;;;;5242956;28;20040;-75
2022/03/04 03:20:23;;;;;;;0.63;0.63;;;-0.60;99.90;;;;;;5263001;28;20034;-74
2022/03/04 03:22:55;;;;;;;0.88;0.88;;;-0.90;99.90;;;;;;5237313;28;20036;-74
2022/03/04 03:25:28;;;;;;;0.80;0.80;;;-1.00;99.90;;;;;;5251837;28;20340;-74
2022/03/04 03:28:02;;;;;;;1.60;1.40;;;-1.10;99.90;;;;;;5245479;28;20062;-74
2022/03/04 03:30:34;;;;;;;0.50;0.50;;;-1.30;99.90;;;;;;5240199;28;20062;-75
2022/03/04 03:33:05;;;;;;;0.50;0.50;;;-1.40;99.90;;;;;;5245609;28;20532;-75
2022/03/04 03:35:43;;;;;;;0.30;0.30;;;-1.30;99.90;;;;;;5257049;28;20742;-74
2022/03/04 03:38:17;;;;;;;0.43;0.43;;;-1.30;99.90;;;;;;5261557;28;20032;-74
2022/03/04 03:40:51;;;;;;;0.70;0.70;;;-1.30;99.90;;;;;;5260588;28;20046;-74
2022/03/04 03:43:25;;;;;;;0.47;0.47;;;-1.30;99.90;;;;;;5250511;28;20054;-75
2022/03/04 03:45:57;;;;;;;0.52;0.52;;;-1.30;99.90;;;;;;5239931;28;20074;-74
2022/03/04 03:48:29;;;;;;;0.87;0.87;;;-1.30;99.90;;;;;;5246651;28;20031;-74
2022/03/04 03:51:01;;;;;;;1.03;1.03;;;-1.30;99.90;;;;;;5229394;28;20434;-74
2022/03/04 03:53:34;;;;;;;0.63;0.63;;;-1.20;99.90;;;;;;5256189;28;20024;-75
2022/03/04 03:56:10;;;;;;;1.37;1.33;;;-1.20;99.90;;;;;;5248082;28;20036;-75
2022/03/04 03:58:46;;;;;;;1.37;1.37;;;-1.10;99.90;;;;;;5237939;28;20036;-75
2022/03/04 04:01:19;;;;;;;0.83;0.83;;;-1.10;99.90;;;;;;5257620;28;20028;-74
2022/03/04 04:03:59;;;;;;;1.07;1.07;;;-1.00;99.90;;;;;;5240017;28;20075;-74
2022/03/04 04:06:41;;;;;;;2.17;2.07;;;-0.90;99.90;;;;;;5234438;28;20056;-75
2022/03/04 04:09:18;;;;;;;0.93;0.93;;;-0.80;99.90;;;;;;5222293;28;20063;-73
2022/03/04 04:11:55;;;;;;;0.80;0.80;;;-0.80;99.90;;;;;;5247681;28;20028;-74
2022/03/04 04:14:27;;;;;;;0.87;0.87;;;-0.80;99.90;;;;;;5255743;28;20031;-74
2022/03/04 04:16:59;;;;;;;0.70;0.70;;;-0.70;99.90;;;;;;5239308;28;20539;-74
2022/03/04 04:19:33;;;;;;;2.10;2.00;;;-0.80;99.90;;;;;;5237362;28;20036;-74
2022/03/04 04:22:12;;;;;;;1.50;1.40;;;-0.80;99.90;;;;;;5256107;28;20030;-75
2022/03/04 04:24:44;;;;;;;0.70;0.70;;;-0.80;99.90;;;;;;5226918;28;20632;-74
2022/03/04 04:27:21;;;;;;;1.38;1.33;;;-0.80;99.90;;;;;;5249110;28;20031;-74
2022/03/04 04:29:52;;;;;;;0.77;0.77;;;-0.80;99.90;;;;;;5252617;28;20050;-73
2022/03/04 04:32:32;;;;;;;0.87;0.87;;;-0.90;99.90;;;;;;5257243;28;20046;-74
2022/03/04 04:35:07;;;;;;;0.70;0.70;;;-0.80;99.90;;;;;;5237563;28;20046;-74
2022/03/04 04:37:44;;;;;;;1.47;1.47;;;-0.80;99.90;;;;;;5264776;28;20549;-74
2022/03/04 04:40:21;;;;;;;0.77;0.77;;;-0.80;99.90;;;;;;5225153;28;20426;-74
2022/03/04 04:42:53;;;;;;;1.53;1.53;;;-0.80;99.90;;;;;;5241384;28;20232;-74
2022/03/04 04:45:24;;;;;;;1.43;1.43;;;-0.80;99.90;;;;;;5244824;28;20050;-73
2022/03/04 04:47:56;;;;;;;1.13;1.13;;;-0.80;99.90;;;;;;5265814;28;20035;-74
2022/03/04 04:50:30;;;;;;;0.50;0.50;;;-0.70;99.90;;;;;;5251812;28;20038;-73
2022/03/04 04:53:06;;;;;;;;;;;-0.70;99.90;;;;;;5221073;28;20623;-73
2022/03/04 04:55:42;;;;;;;0.70;0.70;;;-0.70;99.90;;;;;;5237908;28;19950;-74
2022/03/04 04:58:16;;;;;;;0.90;0.90;;;-0.70;99.90;;;;;;5234760;28;20040;-75
2022/03/04 05:00:53;;;;;;;0.80;0.80;;;-0.70;99.90;;;;;;5244320;28;20052;-74
2022/03/04 05:03:33;;;;;;;0.40;0.40;;;-0.70;99.90;;;;;;5237398;28;20032;-74
2022/03/04 05:06:04;;;;;;;0.60;0.60;;;-0.70;99.90;;;;;;5250524;28;20049;-75
2022/03/04 05:08:38;;;;;;;1.50;1.48;;;-0.60;99.90;;;;;;5241352;28;20485;-73
2022/03/04 05:11:12;;;;;;;0.85;0.85;;;-0.60;99.90;;;;;;5251985;28;20029;-73
2022/03/04 05:13:44;;;;;;;1.95;1.85;;;-0.60;99.90;;;;;;5241085;28;20036;-73
2022/03/04 05:16:18;;;;;;;1.13;1.13;;;-0.70;99.90;;;;;;5228177;28;20651;-73
2022/03/04 05:18:52;;;;;;;0.75;0.75;;;-0.70;99.90;;;;;;5244395;28;20036;-75
2022/03/04 05:21:26;;;;;;;4.25;2.47;;;-0.70;99.90;;;;;;5245170;28;20050;-73
2022/03/04 05:24:00;;;;;;;1.40;1.40;;;-0.70;99.90;;;;;;5243930;28;20035;-74
2022/03/04 05:26:46;;;;;;;0.45;0.45;;;-0.70;99.90;;;;;;5244674;28;20447;-74
2022/03/04 05:29:21;;;;;;;1.08;1.08;;;-0.60;99.90;;;;;;5217707;28;20036;-74
2022/03/04 05:31:53;;;;;;;0.85;0.85;;;-0.60;99.90;;;;;;5216421;28;20048;-73
2022/03/04 05:34:29;;;;;;;0.73;0.73;;;-0.60;99.90;;;;;;5254109;28;20031;-75
2022/03/04 05:37:00;;;;;;;0.90;0.90;;;-0.60;99.90;;;;;;5260778;28;20245;-76
2022/03/04 05:39:35;;;;;;;1.95;1.85;;;-0.60;99.90;;;;;;5262150;28;20028;-75
2022/03/04 05:42:06;;;;;;;1.90;1.80;;;-0.50;99.90;;;;;;5225287;28;20063;-74
2022/03/04 05:44:38;;;;;;;1.67;1.57;;;-0.60;99.90;;;;;;5236532;28;20423;-73
2022/03/04 05:47:10;;;;;;;0.40;0.40;;;-0.60;99.90;;;;;;5248875;28;20039;-73
2022/03/04 05:49:41;;;;;;;1.77;1.67;;;-0.60;99.90;;;;;;5245998;28;20045;-75
2022/03/04 05:52:15;;;;;;;0.67;0.67;;;-0.60;99.90;;;;;;5247790;28;20036;-75
2022/03/04 05:54:52;;;;;;;2.47;2.38;;;-0.60;99.90;;;;;;5243006;28;20040;-74
2022/03/04 05:57:27;;;;;;;0.93;0.93;;;-0.50;99.90;;;;;;5250376;28;20492;-75
2022/03/04 06:00:00;;;;;;;0.63;0.63;;;-0.50;99.90;;;;;;5241366;28;20567;-74
2022/03/04 06:02:34;;;;;;;1.60;1.58;;;-0.50;99.90;;;;;;5227581;28;20042;-75
2022/03/04 06:05:08;;;;;;;1.10;1.08;;;-0.40;99.90;;;;;;5250962;28;20044;-72
2022/03/04 06:07:39;;;;;;;0.70;0.70;;;-0.50;99.90;;;;;;5247362;28;20043;-73
2022/03/04 06:10:13;;;;;;;0.80;0.80;;;-0.50;99.90;;;;;;5227096;28;20055;-73
2022/03/04 06:12:47;;;;;;;0.50;0.50;;;-0.50;99.90;;;;;;5255340;28;20020;-74
2022/03/04 06:15:23;;;;;;;1.23;1.17;;;-0.50;99.90;;;;;;5223253;28;20040;-74
2022/03/04 06:17:55;;;;;;;1.80;1.75;;;-0.50;99.90;;;;;;5227340;28;20542;-73
2022/03/04 06:20:27;;;;;;;1.27;1.27;;;-0.40;99.90;;;;;;5256299;28;20035;-74
2022/03/04 06:22:59;;;;;;;1.25;1.25;;;-0.40;99.90;;;;;;5255288;28;20424;-73
2022/03/04 06:25:31;;;;;;;0.37;0.37;;;-0.30;99.90;;;;;;5228288;28;20037;-72
2022/03/04 06:28:04;;;;;;;1.45;1.45;;;-0.30;99.90;;;;;;5253728;28;20146;-71
2022/03/04 06:30:39;;;;;;;0.90;0.90;;;-0.30;99.90;;;;;;5252439;28;20054;-74
2022/03/04 06:33:30;;;;;;;2.47;2.38;;;-0.40;99.90;;;;;;5257187;28;20024;-75
2022/03/04 06:36:07;;;;;;;0.70;0.70;;;-0.30;99.90;;;;;;5232035;28;20237;-73
2022/03/04 06:38:45;;;;;;;0.93;0.93;;;-0.30;99.90;;;;;;5255750;28;20024;-75
2022/03/04 06:41:19;;;;;;;0.57;0.57;;;-0.30;99.90;;;;;;5251680;28;20221;-74
2022/03/04 06:43:51;;;;;;;0.82;0.82;;;-0.40;99.90;;;;;;5210709;28;20062;-74
2022/03/04 06:46:27;;;;;;;1.00;1.00;;;-0.30;99.90;;;;;;5248795;28;20026;-75
2022/03/04 06:49:04;;;;;;;2.22;2.03;;;-0.30;99.90;;;;;;5230260;28;20035;-74
2022/03/04 06:51:50;;;;;;;2.25;2.15;;;-0.30;99.90;;;;;;5247988;28;20043;-75
2022/03/04 06:54:21;;;;;;;1.20;1.20;;;-0.30;99.90;;;;;;5239979;28;20050;-75
2022/03/04 06:56:55;;;;;;;1.10;1.10;;;-0.30;99.90;;;;;;5244031;28;20037;-76
2022/03/04 06:59:30;;;;;;;0.93;0.93;;;-0.30;99.90;;;;;;5264060;28;20038;-73
2022/03/04 07:02:06;;;;;;;1.38;1.38;;;-0.30;99.90;;;;;;5229302;28;20024;-75
2022/03/04 07:04:37;;;;;;;0.60;0.60;;;-0.30;99.90;;;;;;5233662;28;20051;-75
2022/03/04 07:07:11;;;;;;;0.90;0.90;;;-0.30;99.90;;;;;;5213992;28;20056;-76
2022/03/04 07:09:45;;;;;;;1.08;1.08;;;-0.20;99.90;;;;;;5227092;28;20044;-75
2022/03/04 07:12:19;;;;;;;0.80;0.80;;;-0.30;99.90;;;;;;5243110;28;20070;-76
2022/03/04 07:14:53;;;;;;;0.98;0.98;;;-0.30;99.90;;;;;;5259792;28;20048;-76
2022/03/04 07:17:27;;;;;;;1.05;1.05;;;-0.20;99.90;;;;;;5259932;28;20043;-75
2022/03/04 07:20:06;;;;;;;3.03;2.85;;;-0.20;99.90;;;;;;5259239;28;20056;-75
2022/03/04 07:22:43;;;;;;;1.00;1.00;;;-0.30;99.90;;;;;;5263585;28;20024;-76
2022/03/04 07:25:16;;;;;;;0.43;0.43;;;-0.20;99.90;;;;;;5240992;28;20237;-76
2022/03/04 07:27:47;;;;;;;1.00;1.00;;;-0.20;99.90;;;;;;5224635;28;20055;-76
2022/03/04 07:30:19;;;;;;;1.65;1.65;;;-0.30;99.90;;;;;;5260248;28;20048;-76
2022/03/04 07:32:55;;;;;;;0.70;0.70;;;-0.40;99.90;;;;;;5230278;28;20070;-75
2022/03/04 07:35:27;;;;;;;1.10;1.10;;;-0.30;99.90;;;;;;5260530;28;20054;-75
2022/03/04 07:38:02;;;;;;;0.77;0.55;;;-0.20;99.90;;;;;;5260078;28;20020;-75
2022/03/04 07:40:36;;;;;;;0.88;0.88;;;-0.20;99.90;;;;;;5246129;28;20035;-75
2022/03/04 07:43:07;;;;;;;0.90;0.85;;;-0.30;99.90;;;;;;5242116;28;20032;-78
2022/03/04 07:45:42;;;;;;;0.53;0.53;;;-0.30;99.90;;;;;;5241924;28;20042;-77
2022/03/04 07:48:16;;;;;;;1.85;1.75;;;-0.10;99.90;;;;;;5259477;28;20058;-75
2022/03/04 07:50:47;;;;;;;0.52;0.52;;;-0.10;99.90;;;;;;5246322;28;20038;-76
2022/03/04 07:53:19;;;;;;;2.25;2.08;;;-0.10;99.90;;;;;;5254305;28;20051;-75
2022/03/04 07:55:51;;;;;;;2.30;2.10;;;-0.10;99.90;;;;;;5241015;28;20039;-77
2022/03/04 07:58:25;;;;;;;2.25;2.15;;;0.00;99.90;;;;;;5245074;28;20031;-76
2022/03/04 08:00:57;;;;;;;1.48;1.38;;;-0.10;99.90;;;;;;5236088;28;20048;-76
2022/03/04 08:03:28;;;;;;;0.70;0.70;;;-0.20;99.90;;;;;;5260371;28;20032;-75
2022/03/04 08:06:00;;;;;;;0.97;0.97;;;-0.10;99.90;;;;;;5234178;28;20064;-76
2022/03/04 08:08:32;;;;;;;1.27;1.27;;;-0.10;99.90;;;;;;5260745;28;20034;-77
2022/03/04 08:11:06;;;;;;;2.03;1.88;;;0.00;99.90;;;;;;5244756;28;20047;-75
2022/03/04 08:13:37;;;;;;;0.60;0.60;;;0.10;99.90;;;;;;5216893;28;20348;-75
2022/03/04 08:16:12;;;;;;;0.77;0.77;;;0.30;99.90;;;;;;5260152;28;20044;-76
2022/03/04 08:18:45;;;;;;;0.65;0.65;;;0.30;99.90;;;;;;5243508;28;20052;-76
2022/03/04 08:21:25;;;;;;;1.70;1.65;;;0.30;99.90;;;;;;5256345;28;20535;-75
2022/03/04 08:23:57;;;;;;;1.00;1.00;;;0.30;99.90;;;;;;5254542;28;20498;-76
2022/03/04 08:26:29;;;;;;;1.63;1.52;;;0.40;99.90;;;;;;5249088;28;20054;-74
2022/03/04 08:29:02;;;;;;;1.05;1.05;;;0.70;99.90;;;;;;5259762;28;20040;-75
2022/03/04 08:31:42;;;;;;;0.82;0.82;;;0.70;99.90;;;;;;5258953;28;20032;-75
2022/03/04 08:34:16;;;;;;;0.80;0.80;;;0.90;99.90;;;;;;5260909;28;20040;-74
2022/03/04 08:36:53;;;;;;;4.75;2.53;;;0.80;99.90;;;;;;5256070;28;20032;-78
2022/03/04 08:39:24;;;;;;;0.50;0.50;;;0.90;99.90;;;;;;5262501;28;20046;-75
2022/03/04 08:42:01;;;;;;;1.45;1.45;;;1.00;99.90;;;;;;5257502;28;20040;-77
2022/03/04 08:44:32;;;;;;;0.73;0.73;;;1.00;99.90;;;;;;5225622;28;20059;-75
2022/03/04 08:47:04;;;;;;;1.13;1.13;;;1.20;99.90;;;;;;5235960;28;20206;-75
2022/03/04 08:49:40;;;;;;;0.60;0.60;;;1.30;99.90;;;;;;5240185;28;20481;-76
2022/03/04 08:52:13;;;;;;;1.77;1.67;;;1.30;99.90;;;;;;5253413;28;20027;-75
2022/03/04 08:54:46;;;;;;;0.82;0.82;;;1.30;99.90;;;;;;5257147;28;20035;-75
2022/03/04 08:57:20;;;;;;;2.17;2.08;;;1.00;99.90;;;;;;5234907;28;20073;-75
2022/03/04 08:59:55;;;;;;;2.10;2.00;;;1.10;99.90;;;;;;5261052;28;20042;-76
2022/03/04 09:02:27;;;;;;;2.17;2.08;;;1.10;99.90;;;;;;5240790;28;20032;-77
2022/03/04 09:05:02;;;;;;;0.90;0.90;;;1.00;99.90;;;;;;5225113;28;20576;-75
2022/03/04 09:07:34;;;;;;;0.75;0.75;;;1.00;99.90;;;;;;5244802;28;20337;-76
2022/03/04 09:10:08;;;;;;;1.35;1.35;;;1.00;99.90;;;;;;5254374;28;20050;-74
2022/03/04 09:12:45;;;;;;;1.37;1.37;;;1.20;99.90;;;;;;5242889;28;20031;-76
2022/03/04 09:15:17;;;;;;;0.98;0.98;;;1.60;99.90;;;;;;5251850;28;20273;-76
2022/03/04 09:17:48;;;;;;;1.25;1.25;;;2.00;99.90;;;;;;5238892;28;20031;-77
2022/03/04 09:20:23;;;;;;;1.13;1.13;;;2.30;99.90;;;;;;5242400;28;20057;-77
2022/03/04 09:22:57;;;;;;;0.85;0.85;;;2.50;99.90;;;;;;5225067;28;20040;-77
2022/03/04 09:25:29;;;;;;;1.90;1.85;;;2.80;99.90;;;;;;5239521;28;20042;-77
2022/03/04 09:28:03;;;;;;;1.88;1.77;;;2.90;99.90;;;;;;5226074;28;20052;-75
2022/03/04 09:30:36;;;;;;;;;;;2.80;99.90;;;;;;5214460;28;20020;-78
2022/03/04 09:33:10;;;;;;;1.73;1.63;;;2.90;99.90;;;;;;5257206;28;19912;-78
2022/03/04 09:35:42;;;;;;;0.80;0.80;;;2.70;99.90;;;;;;5260642;28;20028;-76
2022/03/04 09:38:17;;;;;;;0.63;0.63;;;2.60;99.90;;;;;;5243868;28;20326;-75
2022/03/04 09:40:51;;;;;;;0.55;0.55;;;2.40;99.90;;;;;;5243984;28;20046;-76
2022/03/04 09:43:23;;;;;;;1.70;1.60;;;2.40;99.90;;;;;;5251939;28;20333;-76
2022/03/04 09:45:55;;;;;;;1.33;1.33;;;2.40;99.90;;;;;;5259751;28;20047;-75
2022/03/04 09:48:27;;;;;;;0.52;0.52;;;2.60;99.90;;;;;;5256772;28;20032;-75
2022/03/04 09:50:58;;;;;;;0.90;0.90;;;2.40;99.90;;;;;;5242005;28;20459;-77
2022/03/04 09:53:31;;;;;;;1.27;1.25;;;2.60;99.90;;;;;;5261260;28;20024;-76
2022/03/04 09:56:09;;;;;;;1.50;1.40;;;2.70;99.90;;;;;;5256612;28;20032;-75
2022/03/04 09:58:40;;;;;;;2.75;2.63;;;2.90;99.90;;;;;;5240233;28;20066;-78
2022/03/04 10:01:14;;;;;;;1.50;1.50;;;3.10;99.90;;;;;;5240640;28;20048;-77
2022/03/04 10:03:53;;;;;;;0.63;0.63;;;3.30;99.90;;;;;;5244760;28;20036;-77
2022/03/04 10:06:29;;;;;;;1.75;1.67;;;3.10;99.90;;;;;;5237555;28;20118;-75
2022/03/04 10:09:02;;;;;;;1.02;1.02;;;3.00;99.90;;;;;;5242814;28;20041;-77
2022/03/04 10:11:38;;;;;;;1.17;1.17;;;3.20;99.90;;;;;;5226083;28;20393;-77
2022/03/04 10:14:13;;;;;;;0.47;0.47;;;3.20;99.90;;;;;;5224149;28;20036;-76
2022/03/04 10:16:44;;;;;;;;;;;3.40;99.90;;;;;;5229735;28;20048;-77
2022/03/04 10:19:19;;;;;;;0.90;0.90;;;4.20;99.90;;;;;;5259247;28;19918;-78
2022/03/04 10:22:10;;;;;;;0.80;0.80;;;4.30;99.90;;;;;;5241774;28;20024;-75
2022/03/04 10:24:46;;;;;;;1.58;1.58;;;5.00;99.90;;;;;;5241742;28;20054;-78
2022/03/04 10:27:27;;;;;;;0.80;0.80;;;4.90;99.90;;;;;;5231731;28;20040;-78
2022/03/04 10:29:59;;;;;;;1.33;1.33;;;5.00;99.90;;;;;;5240150;28;20554;-77
2022/03/04 10:32:32;;;;;;;3.25;2.95;;;4.60;99.90;;;;;;5225784;28;20531;-78
2022/03/04 10:35:09;;;;;;;0.80;0.80;;;4.30;99.90;;;;;;5255892;28;20046;-77
2022/03/04 10:37:58;;;;;;;0.65;0.65;;;4.20;99.90;;;;;;5244961;28;20051;-78
2022/03/04 10:40:45;;;;;;;1.10;1.10;;;4.90;99.90;;;;;;5244016;28;20042;-76
2022/03/04 10:43:23;;;;;;;1.67;1.63;;;4.50;99.90;;;;;;5226060;28;20028;-77
2022/03/04 10:46:07;;;;;;;1.95;1.88;;;4.50;99.90;;;;;;5223479;28;20044;-77
2022/03/04 10:48:56;;;;;;;1.30;1.30;;;4.90;99.90;;;;;;5241285;28;20030;-77
2022/03/04 10:51:38;;;;;;;0.90;0.90;;;4.50;99.90;;;;;;5242504;28;20471;-76
2022/03/04 10:54:21;;;;;;;1.23;1.20;;;4.50;99.90;;;;;;5260453;28;20036;-77
2022/03/04 10:56:57;;;;;;;0.70;0.70;;;4.50;99.90;;;;;;5226626;28;20039;-77
2022/03/04 10:59:29;;;;;;;1.48;0.93;;;4.10;99.90;;;;;;5257971;28;20223;-76
2022/03/04 11:02:02;;;;;;;3.25;2.95;;;3.90;99.90;;;;;;5240617;28;20052;-78
2022/03/04 11:04:36;;;;;;;2.38;2.17;;;4.00;99.90;;;;;;5234578;28;20056;-77
2022/03/04 11:07:07;;;;;;;0.82;0.82;;;4.60;99.90;;;;;;5224215;28;20027;-79
2022/03/04 11:09:39;;;;;;;1.23;1.23;;;4.80;99.90;;;;;;5238543;28;20591;-77
2022/03/04 11:12:11;;;;;;;0.85;0.85;;;4.20;99.90;;;;;;5256367;28;20036;-77
2022/03/04 11:14:48;;;;;;;1.73;1.67;;;4.00;99.90;;;;;;5228130;28;20393;-77
2022/03/04 11:17:21;;;;;;;1.13;1.13;;;4.10;99.90;;;;;;5240513;28;20326;-77
2022/03/04 11:19:55;;;;;;;1.38;1.38;;;4.00;99.90;;;;;;5260703;28;20462;-77
2022/03/04 11:22:27;;;;;;;0.98;0.98;;;4.00;99.90;;;;;;5241377;28;20062;-77
2022/03/04 11:25:13;;;;;;;1.02;1.02;;;4.10;99.90;;;;;;5261279;28;20036;-78
2022/03/04 11:27:48;;;;;;;1.15;1.08;;;4.10;99.90;;;;;;5251586;28;20387;-77
2022/03/04 11:30:28;;;;;;;1.88;1.58;;;4.00;99.90;;;;;;5254153;28;20048;-78
2022/03/04 11:33:22;;;;;;;1.30;1.20;;;4.20;99.90;;;;;;5240554;28;20495;-78
2022/03/04 11:36:04;;;;;;;0.85;0.85;;;4.20;99.90;;;;;;5240348;28;20536;-76
2022/03/04 11:38:54;;;;;;;0.77;0.77;;;4.20;99.90;;;;;;5235831;28;20036;-77
2022/03/04 11:41:34;;;;;;;1.60;1.60;;;4.20;99.90;;;;;;5254687;28;20036;-77
2022/03/04 11:44:17;;;;;;;0.70;0.70;;;4.30;99.90;;;;;;5246574;28;20070;-77
2022/03/04 11:47:10;;;;;;;1.75;1.27;;;4.30;99.90;;;;;;5239352;28;20041;-76
2022/03/04 11:49:50;;;;;;;2.60;2.50;;;4.30;99.90;;;;;;5246822;28;20462;-76
2022/03/04 11:52:44;;;;;;;1.55;1.55;;;4.20;99.90;;;;;;5236577;28;20031;-76
2022/03/04 11:55:23;;;;;;;0.77;0.77;;;4.40;99.90;;;;;;5256111;28;20026;-76
2022/03/04 11:58:04;;;;;;;1.00;1.00;;;5.00;99.90;;;;;;5254767;28;20043;-76
2022/03/04 12:00:38;;;;;;;1.30;1.30;;;4.90;99.90;;;;;;5250988;28;20028;-77
2022/03/04 12:03:13;;;;;;;1.90;1.80;;;4.50;99.90;;;;;;5232267;28;20039;-76
2022/03/04 12:05:48;;;;;;;1.23;1.23;;;4.80;99.90;;;;;;5235277;28;20048;-75
2022/03/04 12:08:38;;;;;;;1.35;1.33;;;4.70;99.90;;;;;;5238734;28;20038;-77
2022/03/04 12:11:23;;;;;;;1.27;1.27;;;5.00;99.90;;;;;;5241127;28;20034;-76
2022/03/04 12:14:07;;;;;;;1.20;1.20;;;5.10;99.90;;;;;;5258028;28;20040;-77
2022/03/04 12:16:52;;;;;;;1.13;1.13;;;5.30;99.90;;;;;;5242314;28;20031;-75
2022/03/04 12:19:49;;;;;;;2.28;2.17;;;5.00;99.90;;;;;;5243894;28;20028;-77
2022/03/04 12:22:25;;;;;;;1.38;1.27;;;4.80;99.90;;;;;;5259198;28;20044;-76
2022/03/04 12:25:01;;;;;;;1.38;1.38;;;4.90;99.90;;;;;;5228785;28;20062;-76
2022/03/04 12:27:36;;;;;;;1.52;1.42;;;4.80;99.90;;;;;;5239704;28;20046;-77
2022/03/04 12:30:22;;;;;;;1.00;1.00;;;4.80;99.90;;;;;;5243981;28;20027;-76
2022/03/04 12:32:59;;;;;;;0.63;0.63;;;5.00;99.90;;;;;;5231142;28;20035;-76
2022/03/04 12:35:31;;;;;;;0.55;0.55;;;5.80;99.90;;;;;;5235019;28;20521;-75
2022/03/04 12:38:09;;;;;;;1.52;1.42;;;7.10;99.90;;;;;;5239280;28;20043;-79
2022/03/04 12:40:40;;;;;;;2.42;2.22;;;6.20;99.90;;;;;;5241359;28;20044;-73
2022/03/04 12:43:14;;;;;;;1.15;1.15;;;6.50;99.90;;;;;;5247841;28;20462;-75
2022/03/04 12:45:47;;;;;;;0.77;0.77;;;7.70;99.90;;;;;;5255258;28;20060;-76
2022/03/04 12:48:26;;;;;;;1.42;1.42;;;7.30;99.90;;;;;;5255403;28;20036;-77
2022/03/04 12:51:00;;;;;;;1.27;1.27;;;6.30;99.90;;;;;;5243567;28;20048;-78
2022/03/04 12:53:31;;;;;;;0.60;0.60;;;6.60;99.90;;;;;;5235811;28;20046;-77
2022/03/04 12:56:03;;;;;;;1.38;1.38;;;7.80;99.90;;;;;;5237492;28;20923;-78
2022/03/04 12:58:38;;;;;;;1.27;1.27;;;9.10;99.90;;;;;;5255680;28;20030;-75
2022/03/04 13:01:15;;;;;;;0.80;0.80;;;9.50;99.90;;;;;;5238638;28;20347;-76
2022/03/04 13:03:52;;;;;;;1.05;1.05;;;11.00;99.90;;;;;;5234557;28;20040;-77
2022/03/04 13:06:26;;;;;;;1.05;1.05;;;9.40;99.90;;;;;;5240864;28;20107;-77
2022/03/04 13:09:07;;;;;;;;;;;7.60;99.90;;;;;;5221913;28;21129;-76
2022/03/04 13:11:43;;;;;;;1.55;1.55;;;7.70;99.90;;;;;;5253757;28;20240;-76
2022/03/04 13:14:18;;;;;;;1.83;1.38;;;8.20;99.90;;;;;;5247799;28;20078;-76
2022/03/04 13:16:54;;;;;;;1.00;1.00;;;8.90;99.90;;;;;;5235639;28;20160;-76
2022/03/04 13:19:35;;;;;;;1.08;1.08;;;9.50;99.90;;;;;;5251561;28;20195;-75
2022/03/04 13:22:10;;;;;;;0.60;0.60;;;9.50;99.90;;;;;;5251450;28;20040;-77
2022/03/04 13:24:44;;;;;;;1.13;1.13;;;7.90;99.90;;;;;;5239097;28;20043;-76
2022/03/04 13:27:20;;;;;;;1.60;1.60;;;6.70;99.90;;;;;;5257596;28;20055;-76
2022/03/04 13:30:01;;;;;;;1.95;1.85;;;5.80;99.90;;;;;;5235008;28;20606;-76
2022/03/04 13:32:42;;;;;;;0.65;0.65;;;5.30;99.90;;;;;;5239632;28;20096;-78
2022/03/04 13:35:17;;;;;;;1.35;1.35;;;5.00;99.90;;;;;;5258671;28;20070;-75
2022/03/04 13:37:49;;;;;;;0.77;0.77;;;5.00;99.90;;;;;;5220471;28;20338;-75